Time;durP1;ratioP1;P1;durP2;ratioP2;P2;SDS_P1;SDS_P2;PMS_P1;PMS_P2;Temp;Humidity;BMP_temperature;BMP_pressure;BME280_temperature;BME280_humidity;BME280_pressure;Samples;Min_cycle;Max_cycle;Signal;HPM_P1;HPM_P2
2021/12/31 00:01:39;;;;;;;57.17;21.43;;;;;;;0.10;100.00;97246.47;5053093;28;20048;-60
2021/12/31 00:04:08;;;;;;;56.57;19.80;;;;;;;0.12;100.00;97240.34;5070980;28;20047;-59
2021/12/31 00:06:36;;;;;;;49.47;17.97;;;;;;;0.15;100.00;97242.81;5071524;28;20044;-59
2021/12/31 00:09:03;;;;;;;55.70;18.80;;;;;;;0.20;100.00;97240.03;5071325;28;20501;-59
2021/12/31 00:11:30;;;;;;;55.70;21.40;;;;;;;0.23;100.00;97237.34;5063683;28;20150;-59
2021/12/31 00:13:57;;;;;;;45.93;17.37;;;;;;;0.26;100.00;97248.44;5071216;28;20167;-60
2021/12/31 00:16:24;;;;;;;42.30;17.77;;;;;;;0.31;100.00;97245.66;5070686;28;20444;-59
2021/12/31 00:18:53;;;;;;;41.13;16.87;;;;;;;0.32;100.00;97247.34;5071449;28;20044;-59
2021/12/31 00:21:21;;;;;;;38.97;17.03;;;;;;;0.34;100.00;97248.97;5070953;28;20037;-59
2021/12/31 00:23:48;;;;;;;39.50;15.67;;;;;;;0.37;100.00;97255.78;5071257;28;20170;-59
2021/12/31 00:26:15;;;;;;;39.17;16.43;;;;;;;0.37;100.00;97256.63;5070443;28;20131;-60
2021/12/31 00:28:42;;;;;;;41.27;17.57;;;;;;;0.41;100.00;97257.34;5072196;28;20377;-60
2021/12/31 00:31:09;;;;;;;37.57;16.13;;;;;;;0.38;100.00;97250.53;5070771;28;20048;-60
2021/12/31 00:33:36;;;;;;;38.57;15.13;;;;;;;0.38;100.00;97240.19;5069910;28;20128;-60
2021/12/31 00:36:03;;;;;;;36.37;15.57;;;;;;;0.40;100.00;97246.13;5070628;28;20044;-60
2021/12/31 00:38:32;;;;;;;34.33;14.30;;;;;;;0.41;100.00;97244.41;5070524;28;20041;-60
2021/12/31 00:40:59;;;;;;;31.90;14.20;;;;;;;0.40;100.00;97246.13;5070732;28;20044;-60
2021/12/31 00:43:26;;;;;;;31.47;13.97;;;;;;;0.42;100.00;97235.72;5070374;28;20043;-60
2021/12/31 00:45:53;;;;;;;35.37;14.20;;;;;;;0.44;100.00;97232.16;5064167;28;20036;-60
2021/12/31 00:48:20;;;;;;;33.27;13.03;;;;;;;0.44;100.00;97233.94;5071631;28;20045;-61
2021/12/31 00:50:47;;;;;;;35.97;13.10;;;;;;;0.46;100.00;97250.22;5072216;28;20448;-60
2021/12/31 00:53:14;;;;;;;34.13;12.33;;;;;;;0.47;100.00;97234.63;5072024;28;20062;-60
2021/12/31 00:55:42;;;;;;;31.23;13.27;;;;;;;0.48;100.00;97244.13;5070111;28;20045;-60
2021/12/31 00:58:09;;;;;;;33.17;13.47;;;;;;;0.46;100.00;97232.97;5070200;28;20032;-59
2021/12/31 01:00:37;;;;;;;34.47;14.37;;;;;;;0.48;100.00;97238.94;5070037;28;20051;-59
2021/12/31 01:03:04;;;;;;;25.87;11.47;;;;;;;0.50;100.00;97233.66;5070149;28;20392;-60
2021/12/31 01:05:31;;;;;;;26.80;11.20;;;;;;;0.50;100.00;97237.13;5070438;28;20064;-58
2021/12/31 01:07:58;;;;;;;27.30;11.63;;;;;;;0.51;100.00;97235.38;5069846;28;20048;-59
2021/12/31 01:10:27;;;;;;;22.30;10.83;;;;;;;0.54;100.00;97241.28;5071551;28;20047;-59
2021/12/31 01:12:55;;;;;;;24.03;10.30;;;;;;;0.56;100.00;97236.88;5069028;28;20118;-60
2021/12/31 01:15:34;;;;;;;21.53;10.17;;;;;;;0.60;100.00;97235.88;5070097;28;20151;-60
2021/12/31 01:18:18;;;;;;;25.57;10.20;;;;;;;0.60;100.00;97232.41;5070082;28;20386;-60
2021/12/31 01:20:46;;;;;;;21.57;9.50;;;;;;;0.58;100.00;97229.88;5069970;28;20044;-60
2021/12/31 01:23:15;;;;;;;22.37;9.90;;;;;;;0.58;100.00;97240.25;5070197;28;20055;-59
2021/12/31 01:25:42;;;;;;;25.20;9.43;;;;;;;0.58;100.00;97229.88;5069825;28;20405;-58
2021/12/31 01:28:11;;;;;;;23.70;9.97;;;;;;;0.65;100.00;97238.28;5069872;28;20036;-58
2021/12/31 01:30:38;;;;;;;15.77;8.33;;;;;;;0.66;100.00;97233.00;5071491;28;20487;-59
2021/12/31 01:33:05;;;;;;;20.93;10.17;;;;;;;0.66;100.00;97238.19;5069541;28;20072;-59
2021/12/31 01:35:32;;;;;;;22.60;10.23;;;;;;;0.69;100.00;97232.06;5069894;28;20033;-60
2021/12/31 01:37:59;;;;;;;18.43;9.90;;;;;;;0.68;100.00;97226.03;5069828;28;20043;-60
2021/12/31 01:40:26;;;;;;;22.53;11.13;;;;;;;0.68;100.00;97238.13;5070673;28;20543;-60
2021/12/31 01:42:53;;;;;;;20.67;9.17;;;;;;;0.65;100.00;97225.31;5070232;28;20063;-61
2021/12/31 01:45:23;;;;;;;21.10;10.30;;;;;;;0.63;100.00;97222.78;5069817;28;20036;-62
2021/12/31 01:48:04;;;;;;;20.50;9.20;;;;;;;0.63;100.00;97225.38;5069018;28;20055;-62
2021/12/31 01:50:32;;;;;;;28.70;11.37;;;;;;;0.61;100.00;97222.00;5071100;28;20041;-62
2021/12/31 01:53:00;;;;;;;25.30;10.83;;;;;;;0.61;100.00;97222.00;5069650;28;20529;-62
2021/12/31 01:55:30;;;;;;;22.77;10.27;;;;;;;0.62;100.00;97233.22;5069524;28;20090;-63
2021/12/31 01:57:58;;;;;;;27.53;11.20;;;;;;;0.59;100.00;97231.59;5069583;28;20408;-65
2021/12/31 02:00:26;;;;;;;23.30;10.80;;;;;;;0.53;100.00;97242.19;5069781;28;20072;-61
2021/12/31 02:02:53;;;;;;;30.53;12.73;;;;;;;0.46;100.00;97238.16;5069603;28;20059;-62
2021/12/31 02:05:22;;;;;;;26.87;12.83;;;;;;;0.43;100.00;97235.66;5069302;28;20036;-62
2021/12/31 02:07:49;;;;;;;23.07;11.17;;;;;;;0.33;100.00;97229.16;5069843;28;20098;-63
2021/12/31 02:10:17;;;;;;;26.57;12.97;;;;;;;0.41;100.00;97216.78;5069606;28;20378;-63
2021/12/31 02:12:46;;;;;;;29.13;12.93;;;;;;;0.45;100.00;97205.38;5069529;28;20048;-62
2021/12/31 02:15:14;;;;;;;25.93;13.90;;;;;;;0.49;100.00;97211.28;5069302;28;20048;-62
2021/12/31 02:17:44;;;;;;;23.13;11.13;;;;;;;0.49;100.00;97206.97;5069820;28;20781;-61
2021/12/31 02:20:14;;;;;;;22.70;11.40;;;;;;;0.53;100.00;97215.44;5069387;28;20048;-62
2021/12/31 02:22:44;;;;;;;24.17;11.20;;;;;;;0.56;100.00;97215.31;5069300;28;20068;-61
2021/12/31 02:25:12;;;;;;;24.63;10.27;;;;;;;0.57;100.00;97217.00;5072335;28;20432;-62
2021/12/31 02:27:40;;;;;;;24.73;11.00;;;;;;;0.58;100.00;97219.53;5073351;28;20503;-61
2021/12/31 02:30:10;;;;;;;21.03;10.63;;;;;;;0.59;100.00;97229.00;5073609;28;20079;-61
2021/12/31 02:32:37;;;;;;;26.57;10.43;;;;;;;0.57;100.00;97217.00;5073241;28;20041;-62
2021/12/31 02:35:06;;;;;;;19.53;9.83;;;;;;;0.57;100.00;97220.44;5072903;28;20033;-63
2021/12/31 02:37:35;;;;;;;24.47;10.70;;;;;;;0.59;100.00;97205.69;5073771;28;20401;-62
2021/12/31 02:40:03;;;;;;;22.53;10.73;;;;;;;0.58;100.00;97201.41;5072997;28;20485;-62
2021/12/31 02:42:30;;;;;;;25.50;10.80;;;;;;;0.59;100.00;97207.44;5072867;28;20044;-63
2021/12/31 02:44:58;;;;;;;18.90;9.87;;;;;;;0.58;100.00;97203.97;5072967;28;20039;-64
2021/12/31 02:47:25;;;;;;;18.53;9.63;;;;;;;0.59;100.00;97195.34;5072295;28;20097;-65
2021/12/31 02:49:53;;;;;;;25.07;11.07;;;;;;;0.57;100.00;97189.34;5072545;28;20044;-66
2021/12/31 02:52:20;;;;;;;22.67;10.30;;;;;;;0.58;100.00;97195.41;5072682;28;20094;-67
2021/12/31 02:54:50;;;;;;;21.30;9.00;;;;;;;0.58;100.00;97187.63;5072825;28;20037;-68
2021/12/31 02:57:20;;;;;;;23.37;10.47;;;;;;;0.61;100.00;97195.25;5072576;28;20075;-68
2021/12/31 02:59:47;;;;;;;21.83;9.47;;;;;;;0.59;100.00;97184.13;5072426;28;20044;-68
2021/12/31 03:02:19;;;;;;;25.93;10.37;;;;;;;0.59;100.00;97190.16;5072574;28;20136;-63
2021/12/31 03:04:47;;;;;;;25.10;10.47;;;;;;;0.61;100.00;97190.91;5072284;28;20068;-63
2021/12/31 03:07:15;;;;;;;20.43;8.60;;;;;;;0.61;100.00;97185.75;5073102;28;20036;-63
2021/12/31 03:09:46;;;;;;;18.57;8.80;;;;;;;0.62;100.00;97174.47;5072975;28;20394;-63
2021/12/31 03:12:16;;;;;;;25.73;8.80;;;;;;;0.65;100.00;97170.94;5074106;28;20051;-62
2021/12/31 03:14:44;;;;;;;16.53;7.80;;;;;;;0.66;100.00;97178.63;5072344;28;20485;-63
2021/12/31 03:17:12;;;;;;;21.03;8.73;;;;;;;0.69;100.00;97182.84;5072390;28;20131;-62
2021/12/31 03:19:39;;;;;;;15.70;7.90;;;;;;;0.71;100.00;97181.88;5072108;28;20147;-62
2021/12/31 03:22:06;;;;;;;14.47;6.40;;;;;;;0.75;100.00;97180.00;5072662;28;20158;-62
2021/12/31 03:24:33;;;;;;;12.37;6.50;;;;;;;0.76;100.00;97187.69;5072239;28;20045;-64
2021/12/31 03:27:00;;;;;;;18.60;6.60;;;;;;;0.81;100.00;97184.94;5072443;28;20100;-62
2021/12/31 03:29:29;;;;;;;14.57;6.47;;;;;;;0.83;100.00;97184.88;5072302;28;20047;-63
2021/12/31 03:31:56;;;;;;;9.93;5.07;;;;;;;0.84;100.00;97185.63;5071959;28;20558;-63
2021/12/31 03:34:23;;;;;;;12.37;5.33;;;;;;;0.88;100.00;97180.34;5071814;28;20497;-63
2021/12/31 03:36:50;;;;;;;12.67;6.03;;;;;;;0.90;100.00;97183.72;5070793;28;20044;-63
2021/12/31 03:39:17;;;;;;;14.73;6.13;;;;;;;0.91;100.00;97180.22;5071845;28;20401;-63
2021/12/31 03:41:45;;;;;;;15.50;6.07;;;;;;;0.94;100.00;97174.91;5071562;28;20044;-63
2021/12/31 03:44:12;;;;;;;9.93;4.60;;;;;;;0.95;100.00;97176.59;5070644;28;20037;-64
2021/12/31 03:46:40;;;;;;;8.30;3.83;;;;;;;0.98;100.00;97166.09;5071492;28;20481;-65
2021/12/31 03:49:07;;;;;;;9.37;5.40;;;;;;;1.01;100.00;97164.19;5072474;28;20044;-65
2021/12/31 03:51:34;;;;;;;9.67;4.57;;;;;;;1.04;100.00;97176.19;5072525;28;20519;-66
2021/12/31 03:54:01;;;;;;;7.07;3.60;;;;;;;1.06;100.00;97174.38;5071518;28;20125;-65
2021/12/31 03:56:31;;;;;;;8.00;4.03;;;;;;;1.06;100.00;97177.84;5070334;28;20075;-66
2021/12/31 03:58:59;;;;;;;7.27;3.53;;;;;;;1.08;100.00;97170.00;5071386;28;20059;-66
2021/12/31 04:01:27;;;;;;;8.03;4.10;;;;;;;1.09;100.00;97164.72;5071039;28;20052;-67
2021/12/31 04:03:56;;;;;;;6.23;4.77;;;;;;;1.12;100.00;97169.78;5071356;28;20095;-66
2021/12/31 04:06:23;;;;;;;8.77;3.83;;;;;;;1.12;100.00;97169.78;5071400;28;20040;-66
2021/12/31 04:08:51;;;;;;;8.47;4.20;;;;;;;1.13;100.00;97168.03;5072602;28;20055;-67
2021/12/31 04:11:18;;;;;;;6.53;3.93;;;;;;;1.14;100.00;97157.59;5071321;28;20048;-66
2021/12/31 04:13:45;;;;;;;7.67;3.30;;;;;;;1.18;100.00;97163.50;5071481;28;20055;-66
2021/12/31 04:16:12;;;;;;;5.77;3.03;;;;;;;1.19;100.00;97155.66;5072554;28;20103;-66
2021/12/31 04:18:40;;;;;;;5.73;3.27;;;;;;;1.21;100.00;97163.38;5071712;28;20046;-66
2021/12/31 04:21:08;;;;;;;6.73;3.77;;;;;;;1.19;100.00;97160.00;5070676;28;20441;-65
2021/12/31 04:23:47;;;;;;;8.60;3.60;;;;;;;1.17;100.00;97160.06;5071271;28;20515;-64
2021/12/31 04:26:15;;;;;;;6.60;3.33;;;;;;;1.16;100.00;97160.13;5070643;28;20046;-64
2021/12/31 04:28:42;;;;;;;12.97;4.70;;;;;;;1.15;100.00;97166.19;5070985;28;20040;-63
2021/12/31 04:31:09;;;;;;;8.57;4.10;;;;;;;1.16;100.00;97157.53;5071109;28;20400;-63
2021/12/31 04:33:36;;;;;;;9.07;4.57;;;;;;;1.07;100.00;97156.19;5072438;28;20048;-63
2021/12/31 04:36:04;;;;;;;14.53;4.70;;;;;;;1.03;100.00;97164.13;5071179;28;20127;-63
2021/12/31 04:38:32;;;;;;;9.90;4.17;;;;;;;1.00;100.00;97159.09;5070934;28;20114;-63
2021/12/31 04:40:59;;;;;;;9.30;4.47;;;;;;;0.98;100.00;97158.31;5070995;28;20037;-63
2021/12/31 04:43:26;;;;;;;12.37;5.37;;;;;;;1.00;100.00;97157.34;5070694;28;20508;-63
2021/12/31 04:45:53;;;;;;;8.90;4.37;;;;;;;0.97;100.00;97162.66;5070899;28;20042;-62
2021/12/31 04:48:20;;;;;;;13.73;5.07;;;;;;;0.98;100.00;97160.91;5070840;28;20041;-62
2021/12/31 04:50:47;;;;;;;11.73;5.73;;;;;;;1.00;100.00;97169.44;5063947;28;20140;-61
2021/12/31 04:53:15;;;;;;;9.03;3.93;;;;;;;1.02;100.00;97159.88;5065465;28;20405;-62
2021/12/31 04:55:44;;;;;;;8.37;4.20;;;;;;;1.05;100.00;97157.16;5069726;28;20046;-62
2021/12/31 04:58:11;;;;;;;5.83;3.60;;;;;;;1.06;100.00;97151.06;5069045;28;20084;-61
2021/12/31 05:00:38;;;;;;;9.90;4.50;;;;;;;1.08;100.00;97157.03;5068590;28;20052;-61
2021/12/31 05:03:08;;;;;;;6.00;3.40;;;;;;;1.09;100.00;97156.13;5065467;28;20048;-61
2021/12/31 05:05:35;;;;;;;9.33;4.17;;;;;;;1.10;100.00;97157.78;5069327;28;20075;-61
2021/12/31 05:08:03;;;;;;;7.40;4.07;;;;;;;1.11;100.00;97167.25;5069324;28;20044;-61
2021/12/31 05:10:32;;;;;;;8.13;3.33;;;;;;;1.10;100.00;97170.75;5069330;28;20036;-61
2021/12/31 05:13:02;;;;;;;6.90;3.70;;;;;;;1.11;100.00;97162.91;5068494;28;20090;-60
2021/12/31 05:15:34;;;;;;;5.13;3.53;;;;;;;1.12;100.00;97164.59;5069342;28;20051;-61
2021/12/31 05:18:01;;;;;;;7.67;3.63;;;;;;;1.12;100.00;97156.81;5067981;28;20090;-61
2021/12/31 05:20:28;;;;;;;7.63;3.30;;;;;;;1.13;100.00;97161.13;5067749;28;20086;-61
2021/12/31 05:22:57;;;;;;;7.27;3.70;;;;;;;1.16;100.00;97168.72;5069088;28;20078;-61
2021/12/31 05:25:24;;;;;;;5.33;3.17;;;;;;;1.18;100.00;97160.91;5069190;28;20041;-61
2021/12/31 05:27:51;;;;;;;7.20;4.10;;;;;;;1.19;100.00;97166.00;5069045;28;20528;-61
2021/12/31 05:30:20;;;;;;;7.17;4.10;;;;;;;1.21;100.00;97164.22;5069031;28;20084;-61
2021/12/31 05:32:47;;;;;;;6.50;3.30;;;;;;;1.24;100.00;97160.63;5068741;28;20082;-61
2021/12/31 05:35:15;;;;;;;8.37;3.73;;;;;;;1.25;100.00;97173.53;5069164;28;20049;-62
2021/12/31 05:37:42;;;;;;;5.83;3.50;;;;;;;1.24;100.00;97164.09;5068962;28;20446;-60
2021/12/31 05:40:09;;;;;;;4.37;2.80;;;;;;;1.24;100.00;97168.41;5067262;28;20040;-61
2021/12/31 05:42:37;;;;;;;8.60;2.97;;;;;;;1.22;100.00;97159.84;5068649;28;20493;-60
2021/12/31 05:45:05;;;;;;;6.10;3.83;;;;;;;1.23;100.00;97154.59;5068769;28;20037;-62
2021/12/31 05:47:33;;;;;;;6.70;3.23;;;;;;;1.22;100.00;97159.84;5064786;28;20490;-61
2021/12/31 05:50:03;;;;;;;9.63;3.90;;;;;;;1.24;100.00;97158.03;5065584;28;20489;-62
2021/12/31 05:52:31;;;;;;;5.87;3.40;;;;;;;1.24;100.00;97168.41;5065540;28;20047;-61
2021/12/31 05:54:57;;;;;;;6.43;3.70;;;;;;;1.23;100.00;97169.34;5065632;28;20047;-61
2021/12/31 05:57:24;;;;;;;7.03;3.90;;;;;;;1.22;100.00;97172.81;5069224;28;20036;-61
2021/12/31 05:59:51;;;;;;;8.60;3.77;;;;;;;1.23;100.00;97179.72;5071841;28;20457;-61
2021/12/31 06:02:18;;;;;;;13.13;3.90;;;;;;;1.24;100.00;97183.97;5069660;28;20545;-62
2021/12/31 06:04:47;;;;;;;7.87;4.30;;;;;;;1.24;100.00;97186.56;5073420;28;20485;-62
2021/12/31 06:07:14;;;;;;;9.30;4.37;;;;;;;1.25;100.00;97181.31;5074484;28;20094;-62
2021/12/31 06:09:41;;;;;;;10.53;4.33;;;;;;;1.27;100.00;97173.47;5074209;28;20047;-64
2021/12/31 06:12:09;;;;;;;9.97;4.87;;;;;;;1.28;100.00;97170.81;5073253;28;20378;-61
2021/12/31 06:14:36;;;;;;;10.40;5.57;;;;;;;1.30;100.00;97170.75;5074852;28;20064;-62
2021/12/31 06:17:06;;;;;;;7.43;4.20;;;;;;;1.28;100.00;97176.00;5073046;28;20044;-62
2021/12/31 06:19:34;;;;;;;13.47;5.07;;;;;;;1.31;100.00;97175.03;5074284;28;20041;-62
2021/12/31 06:22:03;;;;;;;11.97;5.40;;;;;;;1.33;100.00;97175.78;5074653;28;20606;-62
2021/12/31 06:24:30;;;;;;;14.33;5.10;;;;;;;1.31;100.00;97175.03;5074066;28;20049;-62
2021/12/31 06:26:57;;;;;;;12.40;5.33;;;;;;;1.32;100.00;97177.56;5072892;28;20059;-62
2021/12/31 06:29:24;;;;;;;10.37;5.13;;;;;;;1.32;100.00;97181.88;5073733;28;20040;-62
2021/12/31 06:31:51;;;;;;;12.53;6.73;;;;;;;1.32;100.00;97182.75;5073733;28;20040;-63
2021/12/31 06:34:17;;;;;;;20.70;8.80;;;;;;;1.32;100.00;97179.31;5072941;28;20046;-61
2021/12/31 06:36:44;;;;;;;11.73;5.93;;;;;;;1.33;100.00;97189.59;5073042;28;20549;-62
2021/12/31 06:39:13;;;;;;;14.17;6.70;;;;;;;1.33;100.00;97184.41;5072746;28;20039;-61
2021/12/31 06:41:40;;;;;;;11.10;5.60;;;;;;;1.35;100.00;97181.75;5072943;28;20052;-61
2021/12/31 06:44:07;;;;;;;8.60;5.23;;;;;;;1.35;100.00;97185.22;5073009;28;20047;-62
2021/12/31 06:46:34;;;;;;;10.27;5.10;;;;;;;1.37;100.00;97183.38;5072930;28;20067;-61
2021/12/31 06:49:01;;;;;;;9.33;4.90;;;;;;;1.41;100.00;97189.28;5072715;28;20051;-62
2021/12/31 06:51:28;;;;;;;8.97;4.60;;;;;;;1.46;100.00;97182.13;5072866;28;20437;-62
2021/12/31 06:53:55;;;;;;;6.07;3.53;;;;;;;1.51;100.00;97177.59;5072604;28;20076;-62
2021/12/31 06:56:23;;;;;;;10.53;5.20;;;;;;;1.57;100.00;97182.50;5072740;28;20393;-62
2021/12/31 06:58:50;;;;;;;7.13;3.80;;;;;;;1.61;100.00;97186.66;5072773;28;20127;-63
2021/12/31 07:01:17;;;;;;;6.53;4.03;;;;;;;1.62;100.00;97173.63;5072166;28;20093;-62
2021/12/31 07:03:44;;;;;;;4.60;2.80;;;;;;;1.64;100.00;97174.38;5072307;28;20120;-62
2021/12/31 07:06:11;;;;;;;6.87;4.13;;;;;;;1.69;100.00;97184.56;5072118;28;20055;-62
2021/12/31 07:08:39;;;;;;;9.67;4.70;;;;;;;1.76;100.00;97194.59;5071464;28;20094;-63
2021/12/31 07:11:06;;;;;;;9.97;4.33;;;;;;;1.72;100.00;97187.88;5071283;28;20047;-62
2021/12/31 07:13:35;;;;;;;8.73;3.53;;;;;;;1.67;100.00;97201.97;5072620;28;20101;-63
2021/12/31 07:16:02;;;;;;;7.20;4.10;;;;;;;1.67;100.00;97197.59;5072322;28;20306;-62
2021/12/31 07:18:29;;;;;;;8.70;4.13;;;;;;;1.71;100.00;97195.72;5072112;28;20044;-64
2021/12/31 07:20:56;;;;;;;6.97;3.90;;;;;;;1.73;100.00;97196.47;5072111;28;20053;-62
2021/12/31 07:23:24;;;;;;;7.47;4.40;;;;;;;1.74;100.00;97190.38;5070917;28;20044;-62
2021/12/31 07:25:51;;;;;;;6.03;3.97;;;;;;;1.77;100.00;97198.03;5072037;28;20576;-62
2021/12/31 07:28:18;;;;;;;5.43;3.27;;;;;;;1.79;100.00;97191.03;5072109;28;20068;-62
2021/12/31 07:30:48;;;;;;;8.30;4.03;;;;;;;1.82;100.00;97188.31;5071847;28;20136;-62
2021/12/31 07:33:16;;;;;;;7.43;3.97;;;;;;;1.83;100.00;97187.38;5071995;28;20060;-62
2021/12/31 07:35:43;;;;;;;6.73;3.33;;;;;;;1.83;100.00;97190.84;5070646;28;20501;-61
2021/12/31 07:38:18;;;;;;;6.10;3.20;;;;;;;1.83;100.00;97202.97;5071936;28;20033;-61
2021/12/31 07:40:45;;;;;;;8.23;3.40;;;;;;;1.86;100.00;97192.44;5071938;28;20048;-61
2021/12/31 07:43:13;;;;;;;5.50;3.47;;;;;;;1.89;100.00;97200.09;5072185;28;20810;-61
2021/12/31 07:45:41;;;;;;;5.30;3.50;;;;;;;1.95;100.00;97194.59;5071326;28;20044;-62
2021/12/31 07:48:09;;;;;;;6.97;4.10;;;;;;;1.97;100.00;97201.41;5071360;28;20131;-62
2021/12/31 07:50:37;;;;;;;4.97;3.43;;;;;;;2.04;100.00;97207.19;5071070;28;20474;-62
2021/12/31 07:53:04;;;;;;;11.30;4.87;;;;;;;2.03;100.00;97203.75;5071249;28;20049;-62
2021/12/31 07:55:32;;;;;;;5.27;3.23;;;;;;;2.03;100.00;97206.34;5071118;28;20048;-62
2021/12/31 07:58:02;;;;;;;5.40;3.40;;;;;;;2.03;100.00;97200.28;5068099;28;20082;-62
2021/12/31 08:00:29;;;;;;;4.43;2.83;;;;;;;2.00;100.00;97201.28;5069912;28;20048;-63
2021/12/31 08:02:56;;;;;;;5.90;3.70;;;;;;;2.08;100.00;97198.34;5070908;28;20053;-63
2021/12/31 08:05:25;;;;;;;5.30;3.33;;;;;;;2.06;100.00;97193.22;5071328;28;20052;-63
2021/12/31 08:07:53;;;;;;;5.37;3.43;;;;;;;2.00;100.00;97205.66;5071911;28;20433;-62
2021/12/31 08:10:21;;;;;;;6.43;3.27;;;;;;;2.04;100.00;97208.00;5073044;28;20064;-62
2021/12/31 08:12:48;;;;;;;5.30;3.77;;;;;;;2.15;100.00;97197.97;5071117;28;20123;-62
2021/12/31 08:15:16;;;;;;;6.33;3.57;;;;;;;2.26;100.00;97207.88;5071133;28;20079;-62
2021/12/31 08:17:43;;;;;;;6.80;4.40;;;;;;;2.38;100.00;97192.53;5071960;28;20033;-62
2021/12/31 08:20:11;;;;;;;6.27;3.90;;;;;;;2.44;100.00;97197.47;5070907;28;20123;-69
2021/12/31 08:22:39;;;;;;;8.47;3.67;;;;;;;2.45;100.00;97188.75;5070971;28;20051;-70
2021/12/31 08:25:07;;;;;;;5.80;3.73;;;;;;;2.44;100.00;97204.41;5071453;28;20040;-68
2021/12/31 08:27:34;;;;;;;5.97;3.83;;;;;;;2.42;100.00;97207.09;5069744;28;20050;-69
2021/12/31 08:30:01;;;;;;;5.97;3.33;;;;;;;2.39;100.00;97202.03;5068600;28;20578;-63
2021/12/31 08:32:28;;;;;;;6.37;4.10;;;;;;;2.52;100.00;97208.31;5069788;28;20056;-62
2021/12/31 08:34:55;;;;;;;4.73;3.67;;;;;;;2.52;100.00;97207.50;5066460;28;20569;-63
2021/12/31 08:37:22;;;;;;;6.40;3.27;;;;;;;2.55;100.00;97213.38;5067922;28;20473;-69
2021/12/31 08:39:51;;;;;;;7.87;4.20;;;;;;;2.66;100.00;97220.66;5069061;28;20123;-64
2021/12/31 08:42:18;;;;;;;8.33;4.90;;;;;;;2.72;100.00;97209.97;5070104;28;20068;-69
2021/12/31 08:44:45;;;;;;;10.43;5.90;;;;;;;2.77;100.00;97208.00;5069306;28;20045;-68
2021/12/31 08:47:12;;;;;;;7.13;4.10;;;;;;;2.82;100.00;97201.66;5068579;28;20036;-67
2021/12/31 08:49:43;;;;;;;6.83;4.20;;;;;;;3.01;100.00;97201.63;5069604;28;20045;-67
2021/12/31 08:52:10;;;;;;;8.20;4.10;;;;;;;3.10;100.00;97198.56;5068937;28;20135;-66
2021/12/31 08:54:37;;;;;;;7.60;4.33;;;;;;;3.15;100.00;97199.19;5068711;28;20515;-66
2021/12/31 08:57:06;;;;;;;5.70;3.23;;;;;;;3.06;100.00;97205.69;5067619;28;20445;-67
2021/12/31 08:59:33;;;;;;;5.30;3.90;;;;;;;3.10;100.00;97195.97;5068060;28;20485;-67
2021/12/31 09:02:00;;;;;;;5.97;3.93;;;;;;;3.18;100.00;97188.66;5069926;28;20075;-67
2021/12/31 09:04:27;;;;;;;8.73;4.50;;;;;;;3.23;100.00;97192.72;5069630;28;20060;-67
2021/12/31 09:06:54;;;;;;;6.43;4.27;;;;;;;3.20;100.00;97184.19;5068953;28;20040;-66
2021/12/31 09:09:21;;;;;;;6.83;4.07;;;;;;;3.18;100.00;97178.25;5068079;28;20473;-68
2021/12/31 09:11:48;;;;;;;5.20;3.93;;;;;;;3.19;100.00;97175.53;5069125;28;20056;-72
2021/12/31 09:14:17;;;;;;;6.20;3.70;;;;;;;3.30;100.00;97169.81;5070836;28;20087;-71
2021/12/31 09:16:46;;;;;;;4.57;3.23;;;;;;;3.37;100.00;97166.81;5072287;28;20054;-71
2021/12/31 09:19:13;;;;;;;4.63;2.93;;;;;;;3.49;100.00;97165.34;5070201;28;20041;-72
2021/12/31 09:21:40;;;;;;;3.30;2.23;;;;;;;3.59;100.00;97164.78;5067619;28;20040;-72
2021/12/31 09:24:08;;;;;;;5.07;3.77;;;;;;;3.46;100.00;97173.31;5069914;28;20460;-70
2021/12/31 09:26:35;;;;;;;6.53;4.63;;;;;;;3.45;100.00;97174.22;5069580;28;20045;-69
2021/12/31 09:29:03;;;;;;;5.63;3.40;;;;;;;3.46;100.00;97173.31;5070752;28;20043;-71
2021/12/31 09:31:31;;;;;;;5.97;3.63;;;;;;;3.47;100.00;97177.56;5068460;28;20064;-68
2021/12/31 09:33:58;;;;;;;5.10;2.70;;;;;;;3.43;100.00;97174.31;5069663;28;20120;-69
2021/12/31 09:36:25;;;;;;;4.27;3.23;;;;;;;3.46;100.00;97186.31;5070864;28;20131;-69
2021/12/31 09:38:52;;;;;;;6.27;3.47;;;;;;;3.40;100.00;97171.03;5071649;28;20068;-69
2021/12/31 09:41:19;;;;;;;6.03;2.97;;;;;;;3.40;100.00;97184.88;5071547;28;20048;-68
2021/12/31 09:43:50;;;;;;;4.17;3.53;;;;;;;3.40;100.00;97189.25;5071405;28;20139;-67
2021/12/31 09:46:17;;;;;;;7.07;4.07;;;;;;;3.43;100.00;97195.13;5071016;28;20041;-68
2021/12/31 09:48:46;;;;;;;8.53;3.77;;;;;;;3.48;100.00;97187.91;5070199;28;20036;-68
2021/12/31 09:51:13;;;;;;;6.33;3.77;;;;;;;3.49;100.00;97188.75;5070716;28;20072;-69
2021/12/31 09:53:40;;;;;;;7.80;3.63;;;;;;;3.47;100.00;97190.59;5066112;28;20106;-70
2021/12/31 09:56:08;;;;;;;7.17;4.60;;;;;;;3.47;100.00;97193.19;5071272;28;20748;-70
2021/12/31 09:58:37;;;;;;;10.10;4.67;;;;;;;3.43;100.00;97189.06;5070298;28;20517;-69
2021/12/31 10:01:07;;;;;;;7.60;3.87;;;;;;;3.27;100.00;97194.22;5067853;28;20135;-64
2021/12/31 10:03:36;;;;;;;8.43;4.70;;;;;;;3.30;100.00;97191.44;5066950;28;20063;-66
2021/12/31 10:06:09;;;;;;;11.43;5.70;;;;;;;3.34;100.00;97195.59;5067103;28;20041;-65
2021/12/31 10:08:44;;;;;;;10.20;5.17;;;;;;;3.41;100.00;97199.56;5067460;28;20043;-71
2021/12/31 10:11:13;;;;;;;11.17;5.47;;;;;;;3.37;100.00;97199.81;5068334;28;20059;-73
2021/12/31 10:13:42;;;;;;;12.17;5.30;;;;;;;3.28;100.00;97208.91;5066977;28;20051;-72
2021/12/31 10:16:26;;;;;;;12.80;6.07;;;;;;;3.34;100.00;97199.97;5066979;28;20496;-69
2021/12/31 10:19:07;;;;;;;11.17;5.30;;;;;;;3.39;100.00;97203.16;5066538;28;20040;-72
2021/12/31 10:21:40;;;;;;;13.37;6.33;;;;;;;3.36;100.00;97187.69;5067269;28;20132;-70
2021/12/31 10:24:36;;;;;;;12.15;6.35;;;;;;;3.44;100.00;97190.78;5066127;28;20094;-72
2021/12/31 10:27:19;;;;;;;11.37;6.00;;;;;;;3.40;100.00;97189.25;5066439;28;20489;-71
2021/12/31 10:29:56;;;;;;;16.33;6.78;;;;;;;3.36;100.00;97192.91;5066241;28;20052;-71
2021/12/31 10:32:26;;;;;;;13.07;6.77;;;;;;;3.28;100.00;97184.66;5064813;28;20141;-72
2021/12/31 10:34:53;;;;;;;13.37;7.37;;;;;;;3.31;100.00;97184.50;5066475;28;20048;-71
2021/12/31 10:37:25;;;;;;;13.40;6.60;;;;;;;3.28;100.00;97188.09;5067152;28;20047;-71
2021/12/31 10:39:57;;;;;;;13.37;6.87;;;;;;;3.30;100.00;97188.03;5066268;28;20040;-70
2021/12/31 10:42:29;;;;;;;11.10;5.40;;;;;;;3.36;100.00;97179.88;5064756;28;20047;-70
2021/12/31 10:44:58;;;;;;;9.67;4.77;;;;;;;3.43;100.00;97173.47;5067530;28;20401;-70
2021/12/31 10:47:30;;;;;;;9.57;5.50;;;;;;;3.46;100.00;97173.31;5068661;28;20297;-73
2021/12/31 10:50:09;;;;;;;12.80;5.90;;;;;;;3.54;100.00;97160.72;5068618;28;20485;-70
2021/12/31 10:52:41;;;;;;;12.73;5.43;;;;;;;3.58;100.00;97157.03;5071756;28;20040;-71
2021/12/31 10:55:21;;;;;;;8.23;5.27;;;;;;;3.51;100.00;97153.94;5071388;28;20416;-70
2021/12/31 10:57:51;;;;;;;11.63;6.13;;;;;;;3.42;100.00;97158.78;5071466;28;20060;-71
2021/12/31 11:00:19;;;;;;;11.43;6.33;;;;;;;3.40;100.00;97160.63;5071215;28;20410;-72
2021/12/31 11:02:47;;;;;;;10.60;6.23;;;;;;;3.42;100.00;97157.03;5070425;28;20056;-72
2021/12/31 11:05:16;;;;;;;9.00;5.80;;;;;;;3.45;100.00;97150.81;5071304;28;20055;-71
2021/12/31 11:07:46;;;;;;;11.13;6.20;;;;;;;3.45;100.00;97145.59;5071347;28;20133;-80
2021/12/31 11:10:14;;;;;;;17.17;7.40;;;;;;;3.47;100.00;97152.41;5072529;28;20045;-69
2021/12/31 11:12:43;;;;;;;12.87;6.17;;;;;;;3.52;100.00;97144.38;5071245;28;20045;-76
2021/12/31 11:15:11;;;;;;;10.93;6.00;;;;;;;3.52;100.00;97136.56;5070567;28;20044;-71
2021/12/31 11:17:38;;;;;;;11.07;6.60;;;;;;;3.58;100.00;97142.28;5071372;28;20623;-81
2021/12/31 11:20:07;;;;;;;11.33;6.83;;;;;;;3.54;100.00;97137.31;5072925;28;20048;-73
2021/12/31 11:22:35;;;;;;;7.90;5.47;;;;;;;3.45;100.00;97130.84;5072036;28;20032;-75
2021/12/31 11:25:24;;;;;;;13.90;6.83;;;;;;;3.47;100.00;97130.75;5072012;28;20408;-78
2021/12/31 11:27:52;;;;;;;9.93;5.13;;;;;;;3.46;100.00;97123.88;5071271;28;20051;-78
2021/12/31 11:30:31;;;;;;;10.00;5.57;;;;;;;3.47;100.00;97117.72;5071460;28;20040;-72
2021/12/31 11:33:01;;;;;;;10.33;5.77;;;;;;;3.45;100.00;97127.41;5071721;28;20086;-69